Погода Афонсу-Клаудиуна 2 недели

Эспирито-Санто, Бразилия

16 - 28 июля
  • 16июля
    Сегодня
    +12°
    +28°
    Небольшая облачность
    ВремяПогодаТемператураВлажностьДавлениеВетер, м/сВероятность осадков
    00:00Ясно и безоблачно+15°C88 %722 мм2.2 м/с8 %
    03:00Облачно с прояснениями+13°C93 %722 мм2.0 м/с6 %
    06:00Облачно с прояснениями+12°C96 %722 мм2.3 м/с3 %
    09:00Небольшая облачность+21°C66 %724 мм0.5 м/с3 %
    12:00Облачно с прояснениями+26°C48 %724 мм1.7 м/с25 %
    15:00Небольшая облачность+28°C43 %723 мм2.0 м/с20 %
    18:00Небольшая облачность+21°C59 %722 мм1.4 м/с14 %
    21:00Ясно и безоблачно+18°C83 %723 мм0.5 м/с9 %
  • 17июля
    Среда
    +12°
    +28°
    Облачно с прояснениями
    ВремяПогодаТемператураВлажностьДавлениеВетер, м/сВероятность осадков
    00:00Практически безоблачно+15°C93 %723 мм0.9 м/с6 %
    03:00Облачно с прояснениями+14°C99 %722 мм2.0 м/с3 %
    06:00Облачно с прояснениями+13°C99 %722 мм2.1 м/с4 %
    09:00Ясно и безоблачно+20°C70 %724 мм0.4 м/с3 %
    12:00Практически безоблачно+26°C49 %723 мм1.5 м/с22 %
    15:00Облачно с прояснениями+28°C44 %722 мм1.4 м/с29 %
    18:00Облачно с прояснениями+21°C56 %721 мм1.2 м/с23 %
    21:00Ясно и безоблачно+17°C80 %721 мм1.0 м/с20 %
  • 18июля
    Четверг
    +13°
    +29°
    Небольшая облачность
    ВремяПогодаТемператураВлажностьДавлениеВетер, м/сВероятность осадков
    00:00Практически безоблачно+15°C93 %721 мм0.8 м/с8 %
    03:00Небольшая облачность+13°C98 %719 мм1.2 м/с3 %
    06:00Облачно с прояснениями+13°C98 %720 мм1.6 м/с5 %
    09:00Ясно и безоблачно+21°C71 %722 мм0.1 м/с5 %
    12:00Небольшая облачность+27°C47 %721 мм1.7 м/с4 %
    15:00Небольшая облачность+29°C38 %720 мм0.7 м/с7 %
    18:00Облачно с прояснениями+22°C46 %720 мм1.0 м/с12 %
    21:00Практически безоблачно+19°C75 %721 мм2.7 м/с21 %
  • 19июля
    Пятница
    +11°
    +27°
    Ясно и безоблачно
    ВремяПогодаТемператураВлажностьДавлениеВетер, м/сВероятность осадков
    00:00Небольшая облачность+17°C90 %722 мм2.7 м/с14 %
    03:00Практически безоблачно+16°C90 %721 мм2.7 м/с7 %
    06:00Ясно и безоблачно+14°C87 %722 мм3.2 м/с5 %
    09:00Ясно и безоблачно+21°C60 %724 мм3.6 м/с5 %
    12:00Ясно и безоблачно+26°C42 %723 мм2.8 м/с18 %
    15:00Ясно и безоблачно+26°C40 %722 мм4.4 м/с23 %
    18:00Ясно и безоблачно+19°C56 %722 мм4.2 м/с37 %
    21:00Ясно и безоблачно+17°C72 %723 мм3.3 м/с34 %
  • 20июля
    Суббота
    +10°
    +29°
    Небольшая облачность
    ВремяПогодаТемператураВлажностьДавлениеВетер, м/сВероятность осадков
    00:00Ясно и безоблачно+15°C83 %722 мм2.3 м/с11 %
    03:00Ясно и безоблачно+12°C86 %721 мм2.4 м/с11 %
    06:00Практически безоблачно+12°C94 %721 мм2.6 м/с6 %
    09:00Ясно и безоблачно+20°C57 %724 мм1.0 м/с16 %
    12:00Практически безоблачно+26°C39 %723 мм0.7 м/с13 %
    15:00Небольшая облачность+28°C35 %721 мм0.7 м/с7 %
    18:00Ясно и безоблачно+20°C53 %721 мм1.6 м/с5 %
    21:00Ясно и безоблачно+16°C86 %721 мм1.7 м/с5 %
Мы используем cookies
Соглашаюсь